Time;durP1;ratioP1;P1;durP2;ratioP2;P2;SDS_P1;SDS_P2;PMS_P1;PMS_P2;Temp;Humidity;BMP_temperature;BMP_pressure;BME280_temperature;BME280_humidity;BME280_pressure;Samples;Min_cycle;Max_cycle;Signal;HPM_P1;HPM_P2
2022/01/11 00:00:29;;;;;;;18.30;10.55;;;2.20;99.90;;;;;;5023720;28;20049;-82
2022/01/11 00:02:58;;;;;;;20.58;10.85;;;2.20;99.90;;;;;;5026076;28;20493;-81
2022/01/11 00:05:30;;;;;;;18.00;11.02;;;2.20;99.90;;;;;;5026490;28;20022;-81
2022/01/11 00:08:06;;;;;;;21.20;10.52;;;2.20;99.90;;;;;;5025365;28;20033;-82
2022/01/11 00:10:35;;;;;;;19.55;10.52;;;2.10;99.90;;;;;;5022912;28;20026;-82
2022/01/11 00:13:01;;;;;;;19.17;10.77;;;2.20;99.90;;;;;;5004937;28;20116;-82
2022/01/11 00:15:29;;;;;;;21.73;10.60;;;2.20;99.90;;;;;;5022431;28;20040;-82
2022/01/11 00:17:57;;;;;;;19.15;11.70;;;2.20;99.90;;;;;;5022901;28;20117;-82
2022/01/11 00:20:23;;;;;;;16.77;9.48;;;2.20;99.90;;;;;;5023236;28;20021;-82
2022/01/11 00:24:28;;;;;;;20.33;10.85;;;2.20;99.90;;;;;;5022090;28;20022;-82
2022/01/11 00:25:43;;;;;;;24.83;11.10;;;2.20;99.90;;;;;;5021590;28;20037;-82
2022/01/11 00:28:10;;;;;;;19.58;10.55;;;2.20;99.90;;;;;;5022131;28;20029;-82
2022/01/11 00:30:39;;;;;;;23.50;10.93;;;2.20;99.90;;;;;;5021501;28;20026;-81
2022/01/11 00:34:07;;;;;;;;;;;;;;;;;;;;;
2022/01/11 00:37:13;;;;;;;;;;;;;;;;;;;;;
2022/01/11 00:40:07;;;;;;;20.45;10.70;;;2.20;99.90;;;;;;5022231;28;20108;-82
2022/01/11 00:43:01;;;;;;;26.55;11.75;;;2.20;99.90;;;;;;5020399;28;20037;-82
2022/01/11 00:45:36;;;;;;;25.55;11.90;;;2.20;99.90;;;;;;5022937;28;20084;-83
2022/01/11 00:48:02;;;;;;;22.23;11.00;;;2.20;99.90;;;;;;5005408;28;20018;-82
2022/01/11 00:50:28;;;;;;;22.08;12.20;;;2.20;99.90;;;;;;5023365;28;20483;-83
2022/01/11 00:52:54;;;;;;;21.45;11.73;;;2.20;99.90;;;;;;5021969;28;20109;-82
2022/01/11 00:55:20;;;;;;;21.73;11.73;;;2.20;99.90;;;;;;5030993;28;20033;-81
2022/01/11 00:57:46;;;;;;;21.55;12.43;;;2.20;99.90;;;;;;5029774;28;20025;-82
2022/01/11 01:00:12;;;;;;;24.40;11.80;;;2.20;99.90;;;;;;5023551;28;20151;-82
2022/01/11 01:02:39;;;;;;;23.60;12.43;;;2.10;99.90;;;;;;5004591;28;20083;-82
2022/01/11 01:05:08;;;;;;;20.52;11.18;;;2.20;99.90;;;;;;5021468;28;20403;-81
2022/01/11 01:07:35;;;;;;;21.88;11.38;;;2.20;99.90;;;;;;5021617;28;20033;-81
2022/01/11 01:10:07;;;;;;;19.88;11.90;;;2.20;99.90;;;;;;5021139;28;20053;-82
2022/01/11 01:12:33;;;;;;;19.85;11.50;;;2.20;99.90;;;;;;5021947;28;20029;-80
2022/01/11 01:15:00;;;;;;;19.60;10.82;;;2.10;99.90;;;;;;5021531;28;20024;-82
2022/01/11 01:17:26;;;;;;;24.90;11.45;;;2.10;99.90;;;;;;5020381;28;20113;-82
2022/01/11 01:19:53;;;;;;;19.25;11.00;;;2.10;99.90;;;;;;5020229;28;20093;-81
2022/01/11 01:22:19;;;;;;;24.00;11.40;;;2.10;99.90;;;;;;5019309;28;20026;-82
2022/01/11 01:24:46;;;;;;;18.90;10.35;;;2.20;99.90;;;;;;5020096;28;20117;-81
2022/01/11 01:27:12;;;;;;;27.63;11.93;;;2.10;99.90;;;;;;5035344;28;20022;-81
2022/01/11 01:29:40;;;;;;;26.67;11.77;;;2.20;99.90;;;;;;5024051;28;20053;-82
2022/01/11 01:32:07;;;;;;;20.52;11.05;;;2.20;99.90;;;;;;5019236;28;20426;-83
2022/01/11 01:34:33;;;;;;;21.00;10.48;;;2.20;99.90;;;;;;5019715;28;20029;-82
2022/01/11 01:36:59;;;;;;;18.38;10.45;;;2.20;99.90;;;;;;5020312;28;20022;-83
2022/01/11 01:39:25;;;;;;;20.15;10.55;;;2.20;99.90;;;;;;5019472;28;20384;-82
2022/01/11 01:41:52;;;;;;;24.73;11.00;;;2.20;99.90;;;;;;5020562;28;20026;-82
2022/01/11 01:44:18;;;;;;;17.73;10.52;;;2.10;99.90;;;;;;5018351;28;20074;-81
2022/01/11 01:46:44;;;;;;;18.55;10.60;;;2.20;99.90;;;;;;5019211;28;20148;-81
2022/01/11 01:49:16;;;;;;;21.77;10.48;;;2.20;99.90;;;;;;5002410;28;20064;-83
2022/01/11 01:51:43;;;;;;;20.35;11.07;;;2.20;99.90;;;;;;5020885;28;20109;-82
2022/01/11 01:54:10;;;;;;;23.98;11.60;;;2.20;99.90;;;;;;5020583;28;20026;-82
2022/01/11 01:56:36;;;;;;;21.80;10.63;;;2.10;99.90;;;;;;5020097;28;20099;-82
2022/01/11 01:59:03;;;;;;;19.67;11.00;;;2.10;99.90;;;;;;5021511;28;20025;-82
2022/01/11 02:01:29;;;;;;;21.90;11.00;;;2.10;99.90;;;;;;5019877;28;20108;-82
2022/01/11 02:03:54;;;;;;;17.35;10.70;;;2.10;99.90;;;;;;5020195;28;20054;-81
2022/01/11 02:06:21;;;;;;;17.70;10.13;;;2.10;99.90;;;;;;5020003;28;20049;-82
2022/01/11 02:08:49;;;;;;;25.92;10.52;;;2.10;99.90;;;;;;5019980;28;20022;-82
2022/01/11 02:11:17;;;;;;;17.00;9.25;;;2.20;99.90;;;;;;5020545;28;20079;-82
2022/01/11 02:13:45;;;;;;;20.23;11.02;;;2.20;99.90;;;;;;5019577;28;20026;-82
2022/01/11 02:16:12;;;;;;;18.80;9.85;;;2.20;99.90;;;;;;5018081;28;20032;-82
2022/01/11 02:18:40;;;;;;;18.20;10.25;;;2.20;99.90;;;;;;5019175;28;20046;-82
2022/01/11 02:21:06;;;;;;;19.27;10.68;;;2.20;99.90;;;;;;5029838;28;20022;-81
2022/01/11 02:23:32;;;;;;;19.23;10.02;;;2.10;99.90;;;;;;5032580;28;20032;-81
2022/01/11 02:25:58;;;;;;;19.08;10.90;;;2.10;99.90;;;;;;5018255;28;20058;-82
2022/01/11 02:28:26;;;;;;;17.92;11.48;;;2.10;99.90;;;;;;5017818;28;20026;-82
2022/01/11 02:30:53;;;;;;;22.33;11.20;;;2.10;99.90;;;;;;5018590;28;20091;-81
2022/01/11 02:33:32;;;;;;;25.02;11.63;;;2.10;99.90;;;;;;5018678;28;20363;-82
2022/01/11 02:36:07;;;;;;;22.85;11.07;;;2.10;99.90;;;;;;5018670;28;20429;-82
2022/01/11 02:38:34;;;;;;;17.80;10.60;;;2.10;99.90;;;;;;5020869;28;20029;-81
2022/01/11 02:41:00;;;;;;;20.48;11.95;;;2.10;99.90;;;;;;5018670;28;20113;-82
2022/01/11 02:43:26;;;;;;;20.90;11.85;;;2.10;99.90;;;;;;5018177;28;20116;-82
2022/01/11 02:45:52;;;;;;;21.17;11.82;;;2.10;99.90;;;;;;5017858;28;20037;-82
2022/01/11 02:48:18;;;;;;;24.48;11.00;;;2.10;99.90;;;;;;5019034;28;20029;-82
2022/01/11 02:50:48;;;;;;;17.40;10.63;;;2.10;99.90;;;;;;5023051;28;20045;-82
2022/01/11 02:53:15;;;;;;;18.98;10.25;;;2.10;99.90;;;;;;5022540;28;20029;-82
2022/01/11 02:55:43;;;;;;;19.98;11.07;;;2.10;99.90;;;;;;5021206;28;20085;-82
2022/01/11 02:58:09;;;;;;;21.83;10.85;;;2.10;99.90;;;;;;5021868;28;20509;-82
2022/01/11 03:00:38;;;;;;;21.13;10.77;;;2.10;99.90;;;;;;5021797;28;20045;-81
2022/01/11 03:03:25;;;;;;;18.20;9.52;;;2.20;99.90;;;;;;5022344;28;20029;-82
2022/01/11 03:05:56;;;;;;;17.90;9.30;;;2.20;99.90;;;;;;5022236;28;20037;-81
2022/01/11 03:08:24;;;;;;;17.58;9.57;;;2.30;99.90;;;;;;5021200;28;20045;-82
2022/01/11 03:10:50;;;;;;;17.92;9.93;;;2.20;99.90;;;;;;5021972;28;20029;-81
2022/01/11 03:13:17;;;;;;;20.35;10.73;;;2.20;99.90;;;;;;5003925;28;20395;-81
2022/01/11 03:15:44;;;;;;;18.83;10.90;;;2.20;99.90;;;;;;5021629;28;20477;-82
2022/01/11 03:18:11;;;;;;;18.70;9.68;;;2.10;99.90;;;;;;5018743;28;20030;-82
2022/01/11 03:20:40;;;;;;;19.60;11.10;;;2.10;99.90;;;;;;5019847;28;20418;-81
2022/01/11 03:23:06;;;;;;;20.00;10.32;;;2.10;99.90;;;;;;5020592;28;20056;-81
2022/01/11 03:25:33;;;;;;;18.58;10.70;;;2.20;99.90;;;;;;5020309;28;20402;-82
2022/01/11 03:27:59;;;;;;;17.45;9.85;;;2.20;99.90;;;;;;5020200;28;20041;-81
2022/01/11 03:30:25;;;;;;;17.65;9.32;;;2.20;99.90;;;;;;5003351;28;20026;-81
2022/01/11 03:32:51;;;;;;;16.42;9.80;;;2.20;99.90;;;;;;5021875;28;20542;-82
2022/01/11 03:35:17;;;;;;;13.90;8.35;;;2.30;99.90;;;;;;5006088;28;20128;-82
2022/01/11 03:37:45;;;;;;;20.02;10.48;;;2.30;99.90;;;;;;5034052;28;20086;-80
2022/01/11 03:40:15;;;;;;;19.65;9.75;;;2.40;99.90;;;;;;5034694;28;20025;-80
2022/01/11 03:42:40;;;;;;;16.15;9.18;;;2.40;99.90;;;;;;5034517;28;20018;-81
2022/01/11 03:45:08;;;;;;;17.63;9.35;;;2.40;99.90;;;;;;5034636;28;20206;-82
2022/01/11 03:47:35;;;;;;;15.20;8.57;;;2.40;99.90;;;;;;5033721;28;20026;-82
2022/01/11 03:50:01;;;;;;;17.13;9.70;;;2.40;99.90;;;;;;5016734;28;20057;-82
2022/01/11 03:52:27;;;;;;;17.95;9.38;;;2.40;99.90;;;;;;5034052;28;20064;-81
2022/01/11 03:57:26;;;;;;;15.25;8.73;;;2.40;99.90;;;;;;5034400;28;20022;-82
2022/01/11 03:59:51;;;;;;;17.63;8.95;;;2.40;99.90;;;;;;5032850;28;20025;-81
2022/01/11 04:02:18;;;;;;;19.83;10.27;;;2.50;99.90;;;;;;5058344;22;20042;-81
2022/01/11 04:04:52;;;;;;;14.88;9.48;;;2.50;99.90;;;;;;5039681;28;20033;-81
2022/01/11 04:07:22;;;;;;;16.23;9.15;;;2.50;99.90;;;;;;5039448;28;20392;-82
2022/01/11 04:09:49;;;;;;;13.32;8.77;;;2.50;99.90;;;;;;5020433;28;20053;-81
2022/01/11 04:12:16;;;;;;;15.90;9.23;;;2.50;99.90;;;;;;5040289;28;20030;-81
2022/01/11 04:14:42;;;;;;;15.93;9.52;;;2.50;99.90;;;;;;5038869;28;20079;-82
2022/01/11 04:17:09;;;;;;;14.40;8.73;;;2.50;99.90;;;;;;5037050;28;20021;-81
2022/01/11 04:19:35;;;;;;;14.90;8.65;;;2.50;99.90;;;;;;5032469;28;20017;-81
2022/01/11 04:22:01;;;;;;;15.20;8.55;;;2.50;99.90;;;;;;5028295;28;20072;-82
2022/01/11 04:24:26;;;;;;;15.57;8.48;;;2.50;99.90;;;;;;5040652;28;20025;-82
2022/01/11 04:26:52;;;;;;;15.98;9.48;;;2.50;99.90;;;;;;5021478;28;20031;-82
2022/01/11 04:29:18;;;;;;;21.10;10.57;;;2.50;99.90;;;;;;5041206;28;20033;-81
2022/01/11 04:31:44;;;;;;;17.92;9.60;;;2.50;99.90;;;;;;5023022;28;20022;-81
2022/01/11 04:34:10;;;;;;;15.73;9.50;;;2.40;99.90;;;;;;5038029;28;20025;-81
2022/01/11 04:36:36;;;;;;;15.75;8.82;;;2.40;99.90;;;;;;5021786;28;20075;-82
2022/01/11 04:39:07;;;;;;;16.52;9.02;;;2.40;99.90;;;;;;5029975;28;20645;-81
2022/01/11 04:41:35;;;;;;;19.90;9.32;;;2.40;99.90;;;;;;5038905;28;20074;-81
2022/01/11 04:44:01;;;;;;;16.48;9.07;;;2.40;99.90;;;;;;5040019;28;20029;-80
2022/01/11 04:46:27;;;;;;;14.82;8.13;;;2.40;99.90;;;;;;5041482;28;20033;-82
2022/01/11 04:48:54;;;;;;;13.93;8.63;;;2.40;99.90;;;;;;5040992;28;20033;-81
2022/01/11 04:51:21;;;;;;;12.35;8.07;;;2.40;99.90;;;;;;5044181;28;20109;-82
2022/01/11 04:53:48;;;;;;;14.15;8.55;;;2.40;99.90;;;;;;5025367;28;20036;-81
2022/01/11 04:56:14;;;;;;;20.00;9.32;;;2.40;99.90;;;;;;5040608;28;20473;-80
2022/01/11 04:58:40;;;;;;;13.50;8.40;;;2.40;99.90;;;;;;5044155;28;20021;-82
2022/01/11 05:01:06;;;;;;;23.65;10.40;;;2.30;99.90;;;;;;5044419;28;20039;-80
2022/01/11 05:03:32;;;;;;;20.25;10.48;;;2.30;99.90;;;;;;5041092;28;20053;-80
2022/01/11 05:05:59;;;;;;;20.73;10.23;;;2.20;99.90;;;;;;5040294;28;20025;-79
2022/01/11 05:08:24;;;;;;;20.25;9.75;;;2.20;99.90;;;;;;5039795;28;20030;-79
2022/01/11 05:10:51;;;;;;;15.63;9.57;;;2.10;99.90;;;;;;5024223;28;20021;-77
2022/01/11 05:13:19;;;;;;;21.23;11.15;;;2.10;99.90;;;;;;5024665;28;20026;-78
2022/01/11 05:15:46;;;;;;;19.17;10.43;;;2.10;99.90;;;;;;5026079;28;20636;-79
2022/01/11 05:18:12;;;;;;;20.98;11.88;;;2.10;99.90;;;;;;5022755;28;20397;-79
2022/01/11 05:20:39;;;;;;;22.27;12.32;;;2.00;99.90;;;;;;5040915;28;20025;-79
2022/01/11 05:23:08;;;;;;;19.85;11.90;;;2.00;99.90;;;;;;5021826;28;20060;-80
2022/01/11 05:25:34;;;;;;;23.77;12.15;;;2.00;99.90;;;;;;5038846;28;20029;-80
2022/01/11 05:28:00;;;;;;;20.63;11.63;;;2.00;99.90;;;;;;5039994;28;20040;-79
2022/01/11 05:30:27;;;;;;;21.88;11.73;;;2.00;99.90;;;;;;5037386;28;20454;-78
2022/01/11 05:32:53;;;;;;;23.75;12.35;;;2.00;99.90;;;;;;5038559;28;20026;-78
2022/01/11 05:35:22;;;;;;;22.55;10.77;;;2.00;99.90;;;;;;5039021;28;20098;-80
2022/01/11 05:37:48;;;;;;;26.08;13.63;;;1.90;99.90;;;;;;5037687;28;20120;-80
2022/01/11 05:40:15;;;;;;;26.08;12.88;;;1.90;99.90;;;;;;5053939;28;20033;-80
2022/01/11 05:42:42;;;;;;;25.20;12.63;;;1.90;99.90;;;;;;5052892;28;20021;-80
2022/01/11 05:45:09;;;;;;;23.25;12.07;;;1.80;99.90;;;;;;5041544;28;20537;-81
2022/01/11 05:47:35;;;;;;;21.52;12.13;;;1.90;99.90;;;;;;5039751;28;20063;-80
2022/01/11 05:50:03;;;;;;;25.08;13.00;;;1.90;99.90;;;;;;5025278;28;20037;-80
2022/01/11 05:52:29;;;;;;;26.15;12.40;;;1.90;99.90;;;;;;5048003;28;20025;-80
2022/01/11 05:54:55;;;;;;;23.98;11.98;;;1.90;99.90;;;;;;5048768;28;20040;-79
2022/01/11 05:57:21;;;;;;;22.15;12.50;;;1.90;99.90;;;;;;5046752;28;20032;-78
2022/01/11 05:59:46;;;;;;;24.23;12.55;;;1.80;99.90;;;;;;5039721;28;20033;-78
2022/01/11 06:02:12;;;;;;;21.27;11.75;;;1.90;99.90;;;;;;5021374;28;20041;-79
2022/01/11 06:04:38;;;;;;;23.05;13.48;;;1.90;99.90;;;;;;5024694;28;20035;-82
2022/01/11 06:07:09;;;;;;;27.88;12.70;;;1.90;99.90;;;;;;5028936;28;20021;-81
2022/01/11 06:09:35;;;;;;;27.58;13.95;;;1.90;99.90;;;;;;5051041;28;20103;-82
2022/01/11 06:12:01;;;;;;;28.48;13.88;;;1.90;99.90;;;;;;5032425;28;20029;-82
2022/01/11 06:14:26;;;;;;;23.58;12.25;;;1.90;99.90;;;;;;5051048;28;20033;-80
2022/01/11 06:16:52;;;;;;;24.77;12.82;;;1.90;99.90;;;;;;5049741;28;20033;-80
2022/01/11 06:19:18;;;;;;;25.17;13.35;;;1.90;99.90;;;;;;5050554;28;20029;-81
2022/01/11 06:21:44;;;;;;;24.02;13.77;;;1.90;99.90;;;;;;5047237;28;20010;-80
2022/01/11 06:24:10;;;;;;;22.17;12.00;;;1.90;99.90;;;;;;5025104;28;20174;-81
2022/01/11 06:26:35;;;;;;;25.08;13.45;;;1.90;99.90;;;;;;5045425;28;20030;-82
2022/01/11 06:29:02;;;;;;;27.48;13.70;;;1.90;99.90;;;;;;5027215;28;20026;-82
2022/01/11 06:31:28;;;;;;;23.95;13.32;;;1.90;99.90;;;;;;5037153;28;20037;-82
2022/01/11 06:33:54;;;;;;;24.77;13.32;;;1.90;99.90;;;;;;5013962;28;20080;-82
2022/01/11 06:36:20;;;;;;;25.38;13.13;;;1.90;99.90;;;;;;5031925;28;20049;-81
2022/01/11 06:38:47;;;;;;;28.13;14.07;;;1.90;99.90;;;;;;5032284;28;20010;-82
2022/01/11 06:41:13;;;;;;;28.60;14.40;;;1.90;99.90;;;;;;5033111;28;20041;-81
2022/01/11 06:43:40;;;;;;;23.92;12.77;;;1.90;99.90;;;;;;5032639;28;20029;-82
2022/01/11 06:46:06;;;;;;;24.58;12.95;;;1.90;99.90;;;;;;5016059;28;20037;-82
2022/01/11 06:48:33;;;;;;;21.17;11.35;;;1.90;99.90;;;;;;5014936;28;20109;-83
2022/01/11 06:50:58;;;;;;;26.63;13.13;;;1.90;99.90;;;;;;5006841;28;20216;-83
2022/01/11 06:53:24;;;;;;;25.25;13.15;;;1.90;99.90;;;;;;5005513;28;20129;-83
2022/01/11 06:55:53;;;;;;;24.23;13.05;;;1.90;99.90;;;;;;5023968;28;20030;-83
2022/01/11 06:58:19;;;;;;;23.42;13.07;;;2.00;99.90;;;;;;5024135;28;20021;-83
2022/01/11 07:00:45;;;;;;;27.27;14.38;;;1.90;99.90;;;;;;5005236;28;20026;-81
2022/01/11 07:03:12;;;;;;;23.20;12.50;;;1.90;99.90;;;;;;5042150;28;20025;-82
2022/01/11 07:05:37;;;;;;;21.77;12.73;;;2.00;99.90;;;;;;5024783;28;20088;-82
2022/01/11 07:08:04;;;;;;;19.98;10.98;;;2.00;99.90;;;;;;5042083;28;20035;-81
2022/01/11 07:10:30;;;;;;;21.58;11.32;;;2.00;99.90;;;;;;5045501;28;20033;-82
2022/01/11 07:12:57;;;;;;;21.15;11.70;;;2.00;99.90;;;;;;5042865;28;20032;-83
2022/01/11 07:15:23;;;;;;;24.25;12.30;;;2.00;99.90;;;;;;5047284;28;20028;-82
2022/01/11 07:17:49;;;;;;;21.58;12.40;;;2.00;99.90;;;;;;5040177;28;20071;-83
2022/01/11 07:20:15;;;;;;;23.15;12.30;;;2.00;99.90;;;;;;5043521;28;20025;-83
2022/01/11 07:22:41;;;;;;;26.23;13.80;;;2.00;99.90;;;;;;5041594;28;20066;-83
2022/01/11 07:25:07;;;;;;;18.25;11.80;;;2.00;99.90;;;;;;5043224;28;20026;-83
2022/01/11 07:27:34;;;;;;;21.75;11.77;;;2.00;99.90;;;;;;5023801;28;20101;-83
2022/01/11 07:30:01;;;;;;;20.88;12.68;;;2.00;99.90;;;;;;5044970;28;20030;-83
2022/01/11 07:32:40;;;;;;;21.30;12.40;;;2.00;99.90;;;;;;5037382;23;20076;-83
2022/01/11 07:35:24;;;;;;;20.85;12.05;;;2.00;99.90;;;;;;5025473;28;20022;-82
2022/01/11 07:37:50;;;;;;;23.30;12.15;;;2.00;99.90;;;;;;5000640;28;20137;-82
2022/01/11 07:40:16;;;;;;;20.42;12.77;;;2.10;99.90;;;;;;5023773;28;20018;-82
2022/01/11 07:42:45;;;;;;;25.30;13.43;;;2.10;99.90;;;;;;5024114;28;20039;-82
2022/01/11 07:45:56;;;;;;;24.63;12.27;;;2.10;99.90;;;;;;5023613;28;20026;-83
2022/01/11 07:48:38;;;;;;;22.33;12.52;;;2.10;99.90;;;;;;5020052;28;20033;-82
2022/01/11 07:51:04;;;;;;;22.40;12.15;;;2.10;99.90;;;;;;5023415;28;20030;-80
2022/01/11 07:53:30;;;;;;;24.10;12.73;;;2.10;99.90;;;;;;5003491;28;20044;-81
2022/01/11 07:55:56;;;;;;;21.20;12.23;;;2.20;99.90;;;;;;5021245;28;20022;-80
2022/01/11 07:58:22;;;;;;;23.73;12.40;;;2.20;99.90;;;;;;5022557;28;20101;-81
2022/01/11 08:00:48;;;;;;;23.70;12.45;;;2.30;99.90;;;;;;5020206;28;20030;-82
2022/01/11 08:03:14;;;;;;;23.33;13.48;;;2.30;99.90;;;;;;5013679;28;20140;-79
2022/01/11 08:05:40;;;;;;;19.23;11.57;;;2.30;99.90;;;;;;5004093;28;20382;-80
2022/01/11 08:08:06;;;;;;;25.38;13.35;;;2.40;99.90;;;;;;5007131;28;20033;-82
2022/01/11 08:10:32;;;;;;;24.90;11.98;;;2.40;99.90;;;;;;4987155;28;20030;-82
2022/01/11 08:12:58;;;;;;;23.60;11.95;;;2.40;99.90;;;;;;5002196;28;20026;-82
2022/01/11 08:15:24;;;;;;;23.38;12.77;;;2.40;99.90;;;;;;5002458;28;20061;-82
2022/01/11 08:17:50;;;;;;;24.27;12.73;;;2.40;99.90;;;;;;4983628;28;20046;-81
2022/01/11 08:20:16;;;;;;;22.80;12.18;;;2.40;99.90;;;;;;5001536;28;20030;-83
2022/01/11 08:22:42;;;;;;;23.65;13.15;;;2.40;99.90;;;;;;5001176;28;20031;-81
2022/01/11 08:25:09;;;;;;;21.65;13.00;;;2.40;99.90;;;;;;5003319;28;20019;-83
2022/01/11 08:27:34;;;;;;;28.98;12.70;;;2.30;99.90;;;;;;4992903;28;20028;-81
2022/01/11 08:30:02;;;;;;;20.58;12.52;;;2.30;99.90;;;;;;5011151;28;20030;-81
2022/01/11 08:32:28;;;;;;;23.35;12.27;;;2.30;99.90;;;;;;5006784;28;20033;-82
2022/01/11 08:34:54;;;;;;;20.80;11.63;;;2.30;99.90;;;;;;5007350;28;20026;-82
2022/01/11 08:37:19;;;;;;;19.25;12.35;;;2.20;99.90;;;;;;5003226;28;20090;-81
2022/01/11 08:39:45;;;;;;;22.95;13.18;;;2.20;99.90;;;;;;4986081;28;20467;-81
2022/01/11 08:42:12;;;;;;;20.35;11.15;;;2.20;99.90;;;;;;5008197;28;20029;-82
2022/01/11 08:44:43;;;;;;;20.50;12.30;;;2.30;99.90;;;;;;5012178;28;20023;-80
2022/01/11 08:47:09;;;;;;;21.45;13.02;;;2.30;99.90;;;;;;5011574;28;20022;-84
2022/01/11 08:49:35;;;;;;;16.63;10.52;;;2.20;99.90;;;;;;5011287;28;20499;-83
2022/01/11 08:52:01;;;;;;;20.83;11.55;;;2.20;99.90;;;;;;4988413;28;20045;-82
2022/01/11 08:54:27;;;;;;;18.92;11.05;;;2.20;99.90;;;;;;4987321;28;20164;-81
2022/01/11 08:56:55;;;;;;;16.70;9.20;;;2.30;99.90;;;;;;5001955;28;20034;-83
2022/01/11 08:59:21;;;;;;;14.95;9.25;;;2.40;99.90;;;;;;5003101;28;20050;-83
2022/01/11 09:01:48;;;;;;;20.58;11.98;;;2.60;99.90;;;;;;5018493;28;20021;-83
2022/01/11 09:04:16;;;;;;;23.42;12.05;;;2.60;99.90;;;;;;5003102;28;20022;-82
2022/01/11 09:06:43;;;;;;;19.17;12.10;;;2.60;99.90;;;;;;5005651;28;20026;-79
2022/01/11 09:09:09;;;;;;;18.98;11.82;;;2.60;99.90;;;;;;5000877;28;20030;-84
2022/01/11 09:11:35;;;;;;;20.10;11.90;;;2.50;99.90;;;;;;5009498;28;20049;-83
2022/01/11 09:14:01;;;;;;;22.30;12.23;;;2.50;99.90;;;;;;5006487;28;20084;-82
2022/01/11 09:16:27;;;;;;;24.08;13.38;;;2.50;99.90;;;;;;5004711;28;20037;-81
2022/01/11 09:18:53;;;;;;;25.25;13.23;;;2.60;99.90;;;;;;5023518;28;20030;-83
2022/01/11 09:21:20;;;;;;;24.38;13.38;;;2.60;99.90;;;;;;5008942;28;20057;-84
2022/01/11 09:23:50;;;;;;;20.35;12.48;;;2.60;99.90;;;;;;5023981;28;20039;-80
2022/01/11 09:26:20;;;;;;;22.05;12.90;;;2.70;99.90;;;;;;5007060;28;20487;-79
2022/01/11 09:28:46;;;;;;;27.02;14.25;;;2.70;99.90;;;;;;5002722;28;20041;-78
2022/01/11 09:31:12;;;;;;;27.95;15.45;;;2.80;99.90;;;;;;5025075;28;20085;-82
2022/01/11 09:33:39;;;;;;;25.33;14.10;;;2.80;99.90;;;;;;5009326;28;20096;-80
2022/01/11 09:36:05;;;;;;;25.73;13.43;;;2.80;99.90;;;;;;5009149;28;20022;-82
2022/01/11 09:38:31;;;;;;;22.80;13.20;;;2.80;99.90;;;;;;5008915;28;20056;-78
2022/01/11 09:40:58;;;;;;;25.65;12.93;;;2.80;99.90;;;;;;5012436;28;20045;-80
2022/01/11 09:43:25;;;;;;;23.23;12.95;;;2.90;99.90;;;;;;5021854;28;20133;-82
2022/01/11 09:45:53;;;;;;;24.35;13.75;;;2.90;99.90;;;;;;5032131;28;20030;-81
2022/01/11 09:48:24;;;;;;;19.25;12.23;;;2.90;99.90;;;;;;5033231;28;20022;-82
2022/01/11 09:50:50;;;;;;;24.13;13.80;;;2.90;99.90;;;;;;5015092;28;20022;-83
2022/01/11 09:53:18;;;;;;;24.13;13.60;;;2.90;99.90;;;;;;5009499;28;20053;-82
2022/01/11 09:55:44;;;;;;;22.90;12.75;;;2.90;99.90;;;;;;5019268;28;20029;-81
2022/01/11 09:58:12;;;;;;;24.02;13.00;;;3.00;99.90;;;;;;5019385;28;20064;-84
2022/01/11 10:00:40;;;;;;;20.38;13.10;;;3.00;99.90;;;;;;5006778;28;20031;-83
2022/01/11 10:03:07;;;;;;;17.33;10.43;;;3.00;99.90;;;;;;4990779;28;20122;-82
2022/01/11 10:05:35;;;;;;;19.25;11.52;;;3.10;99.90;;;;;;4996488;28;20053;-81
2022/01/11 10:08:27;;;;;;;17.35;11.40;;;3.20;99.90;;;;;;5015756;28;20045;-81
2022/01/11 10:10:56;;;;;;;18.50;11.07;;;3.20;99.90;;;;;;4986316;28;20030;-82
2022/01/11 10:13:33;;;;;;;20.38;11.32;;;3.40;99.90;;;;;;5003116;28;20110;-82
2022/01/11 10:16:17;;;;;;;18.88;10.77;;;3.40;99.70;;;;;;5005041;28;20078;-83
2022/01/11 10:18:43;;;;;;;18.40;11.77;;;3.40;99.00;;;;;;5007910;28;20022;-83
2022/01/11 10:21:33;;;;;;;18.33;11.05;;;3.40;98.40;;;;;;5012067;28;20026;-83
2022/01/11 10:24:00;;;;;;;18.00;10.68;;;3.40;98.50;;;;;;5016242;28;20069;-79
2022/01/11 10:26:44;;;;;;;18.15;11.65;;;3.40;99.00;;;;;;4998587;28;20064;-81
2022/01/11 10:29:37;;;;;;;20.23;11.35;;;3.50;98.70;;;;;;5009156;28;20503;-82
2022/01/11 10:32:22;;;;;;;17.45;10.50;;;3.50;99.00;;;;;;4995541;28;20022;-80
2022/01/11 10:34:52;;;;;;;17.20;10.00;;;3.60;97.60;;;;;;5001166;28;20034;-82
2022/01/11 10:37:33;;;;;;;18.40;9.68;;;3.50;96.40;;;;;;5004437;28;20022;-83
2022/01/11 10:40:12;;;;;;;14.98;9.45;;;3.50;96.70;;;;;;5003038;28;20371;-83
2022/01/11 10:42:45;;;;;;;18.55;10.27;;;3.50;97.00;;;;;;5005800;28;20173;-79
2022/01/11 10:45:15;;;;;;;14.00;9.57;;;3.60;97.20;;;;;;5008593;28;20098;-85
2022/01/11 10:47:46;;;;;;;15.20;9.80;;;3.60;96.50;;;;;;5010833;28;20027;-83
2022/01/11 10:50:12;;;;;;;14.43;9.30;;;3.60;97.00;;;;;;5013524;28;20022;-83
2022/01/11 10:52:42;;;;;;;10.85;7.15;;;3.80;97.00;;;;;;5011332;28;20042;-85
2022/01/11 10:55:12;;;;;;;16.02;9.43;;;3.80;96.90;;;;;;5009766;28;20030;-84
2022/01/11 10:57:38;;;;;;;12.52;8.40;;;3.80;96.00;;;;;;5007334;28;20022;-81
2022/01/11 11:00:16;;;;;;;17.25;10.13;;;3.70;95.60;;;;;;4986560;28;20029;-83
2022/01/11 11:02:46;;;;;;;17.60;9.77;;;3.60;95.90;;;;;;5017783;28;20036;-80
2022/01/11 11:05:31;;;;;;;13.13;8.43;;;3.60;95.80;;;;;;5012770;28;20033;-83
2022/01/11 11:08:04;;;;;;;15.38;8.90;;;3.50;95.90;;;;;;5017849;28;20029;-79
2022/01/11 11:10:35;;;;;;;14.23;9.20;;;3.70;95.90;;;;;;5033706;28;20026;-80
2022/01/11 11:13:01;;;;;;;12.45;8.23;;;3.90;95.40;;;;;;5032814;28;20086;-80
2022/01/11 11:15:29;;;;;;;11.20;7.13;;;4.00;94.20;;;;;;5031883;28;20446;-79
2022/01/11 11:17:56;;;;;;;12.68;7.53;;;4.00;93.20;;;;;;5031482;28;20050;-80
2022/01/11 11:20:23;;;;;;;13.00;7.15;;;3.80;92.60;;;;;;5007232;28;20018;-80
2022/01/11 11:22:49;;;;;;;15.00;7.07;;;3.60;92.80;;;;;;5027662;28;20026;-81
2022/01/11 11:25:15;;;;;;;9.75;6.85;;;3.70;93.30;;;;;;5025532;28;20026;-82
2022/01/11 11:27:41;;;;;;;9.63;6.20;;;3.80;93.60;;;;;;5025933;28;20087;-82
2022/01/11 11:30:07;;;;;;;13.00;6.95;;;4.20;93.60;;;;;;5007993;28;20053;-82
2022/01/11 11:32:34;;;;;;;12.25;6.90;;;4.40;92.50;;;;;;5027433;28;20033;-82
2022/01/11 11:34:59;;;;;;;13.80;6.88;;;4.50;92.20;;;;;;5027369;28;20113;-82
2022/01/11 11:37:31;;;;;;;10.00;6.25;;;4.60;91.30;;;;;;5027315;28;20066;-81
2022/01/11 11:39:59;;;;;;;9.95;6.32;;;4.50;91.00;;;;;;5010127;28;20352;-82
2022/01/11 11:42:27;;;;;;;10.75;5.47;;;4.40;91.40;;;;;;5013676;28;20033;-81
2022/01/11 11:44:53;;;;;;;7.22;5.13;;;4.30;90.70;;;;;;5027220;28;20030;-81
2022/01/11 11:47:35;;;;;;;9.18;5.45;;;4.30;90.70;;;;;;5016974;28;20142;-81
2022/01/11 11:50:14;;;;;;;9.13;6.15;;;4.20;90.80;;;;;;5009664;28;20037;-81
2022/01/11 11:52:43;;;;;;;7.60;4.40;;;4.20;90.70;;;;;;5036992;28;20025;-82
2022/01/11 11:55:28;;;;;;;7.38;4.78;;;4.20;91.40;;;;;;5032846;28;20018;-82
2022/01/11 11:58:07;;;;;;;9.13;5.35;;;4.30;91.30;;;;;;5010462;28;20197;-84
2022/01/11 12:00:36;;;;;;;9.52;4.90;;;4.30;90.60;;;;;;5025639;28;20463;-81
2022/01/11 12:03:24;;;;;;;9.75;5.60;;;4.40;90.30;;;;;;5027502;28;20022;-82
2022/01/11 12:05:51;;;;;;;6.75;4.75;;;4.50;90.20;;;;;;5009009;28;20068;-83
2022/01/11 12:08:42;;;;;;;7.63;4.55;;;4.80;90.70;;;;;;4994281;28;20034;-81
2022/01/11 12:11:14;;;;;;;8.82;4.72;;;5.10;90.10;;;;;;5009444;28;20090;-81
2022/01/11 12:13:43;;;;;;;5.00;3.65;;;5.10;88.00;;;;;;5008434;28;20022;-80
2022/01/11 12:16:24;;;;;;;7.03;4.35;;;5.20;88.10;;;;;;5007267;28;20025;-81
2022/01/11 12:18:51;;;;;;;13.15;6.15;;;5.30;87.90;;;;;;5006103;28;20450;-82
2022/01/11 12:21:17;;;;;;;9.10;5.38;;;5.40;87.00;;;;;;5004719;28;20058;-81
2022/01/11 12:23:48;;;;;;;9.45;5.78;;;5.40;84.40;;;;;;5005709;28;20031;-79
2022/01/11 12:26:21;;;;;;;6.78;5.10;;;5.30;85.90;;;;;;5003863;28;20134;-80
2022/01/11 12:29:10;;;;;;;10.32;5.85;;;5.30;86.60;;;;;;5003627;28;20077;-81
2022/01/11 12:32:02;;;;;;;9.43;5.40;;;5.40;85.60;;;;;;5013304;28;20025;-81
2022/01/11 12:34:47;;;;;;;7.53;5.13;;;5.30;86.10;;;;;;4991875;28;20050;-81
2022/01/11 12:37:28;;;;;;;8.95;5.05;;;5.30;83.90;;;;;;5024017;28;20025;-81
2022/01/11 12:40:09;;;;;;;8.57;5.85;;;5.10;83.90;;;;;;5022111;28;20064;-80
2022/01/11 12:42:36;;;;;;;8.27;6.00;;;4.90;84.40;;;;;;5023037;28;20084;-79
2022/01/11 12:47:46;;;;;;;7.78;5.30;;;4.50;85.20;;;;;;5022875;28;20026;-80
2022/01/11 12:50:14;;;;;;;;;;;4.30;85.50;;;;;;5010834;28;20030;-81
2022/01/11 12:52:40;;;;;;;10.00;4.88;;;4.10;86.90;;;;;;5010208;28;19910;-82
2022/01/11 12:55:07;;;;;;;7.60;4.85;;;3.90;87.30;;;;;;5025391;28;20106;-80
2022/01/11 12:57:36;;;;;;;12.23;5.20;;;3.80;88.50;;;;;;5008025;28;20541;-79